createdAt,value
2024-03-20T00:00:53.064Z,34.94
2024-03-20T00:01:53.072Z,34.96
2024-03-20T00:02:53.068Z,35.00
2024-03-20T00:03:53.071Z,34.93
2024-03-20T00:04:53.077Z,34.97
2024-03-20T00:05:53.080Z,34.95
2024-03-20T00:06:53.083Z,34.92
2024-03-20T00:07:53.093Z,34.99
2024-03-20T00:08:53.082Z,34.93
2024-03-20T00:09:53.077Z,34.95
2024-03-20T00:10:53.084Z,34.98
2024-03-20T00:11:53.096Z,34.97
2024-03-20T00:12:53.083Z,34.96
2024-03-20T00:13:53.098Z,34.97
2024-03-20T00:14:53.080Z,34.99
2024-03-20T00:15:53.066Z,34.97
2024-03-20T00:16:53.063Z,34.93
2024-03-20T00:17:53.067Z,34.96
2024-03-20T00:18:53.075Z,34.98
2024-03-20T00:19:53.082Z,34.94
2024-03-20T00:20:53.093Z,34.97
2024-03-20T00:21:53.102Z,34.97
2024-03-20T00:22:53.093Z,34.90
2024-03-20T00:23:53.082Z,34.94
2024-03-20T00:24:53.083Z,34.96
2024-03-20T00:25:53.080Z,34.96
2024-03-20T00:26:55.435Z,34.93
2024-03-20T00:27:53.097Z,34.96
2024-03-20T00:28:53.109Z,34.94
2024-03-20T00:29:53.123Z,34.93
2024-03-20T00:30:53.159Z,34.92
2024-03-20T00:31:53.161Z,34.95
2024-03-20T00:32:53.174Z,34.94
2024-03-20T00:33:53.186Z,34.96
2024-03-20T00:34:53.217Z,34.98
2024-03-20T00:37:53.244Z,34.95
2024-03-20T00:38:53.233Z,34.95
2024-03-20T00:39:53.220Z,34.97
2024-03-20T00:40:53.251Z,34.92
2024-03-20T00:41:53.227Z,34.92
2024-03-20T00:42:53.244Z,34.98
2024-03-20T00:43:53.245Z,34.95
2024-03-20T00:44:53.213Z,34.94
2024-03-20T00:45:53.238Z,34.94
2024-03-20T00:46:53.207Z,34.94
2024-03-20T00:47:53.211Z,34.98
2024-03-20T00:48:53.207Z,34.97
2024-03-20T00:49:53.202Z,34.91
2024-03-20T00:50:53.194Z,34.92
2024-03-20T00:51:53.185Z,34.97
2024-03-20T00:52:53.333Z,34.93
2024-03-20T00:53:53.180Z,34.94
2024-03-20T00:54:53.179Z,34.93
2024-03-20T00:55:53.173Z,34.94
2024-03-20T00:56:53.164Z,34.90
2024-03-20T00:57:53.166Z,34.91
2024-03-20T00:58:53.174Z,34.93
2024-03-20T00:59:53.166Z,34.95
2024-03-20T01:00:53.182Z,34.90
2024-03-20T01:01:53.170Z,34.93
2024-03-20T01:02:53.159Z,34.95
2024-03-20T01:03:53.159Z,34.97
2024-03-20T01:04:53.169Z,34.91
2024-03-20T01:05:53.152Z,34.91
2024-03-20T01:06:53.159Z,34.88
2024-03-20T01:07:53.149Z,34.91
2024-03-20T01:08:53.152Z,34.94
2024-03-20T01:09:53.145Z,34.90
2024-03-20T01:10:53.142Z,34.91
2024-03-20T01:11:53.143Z,34.93
2024-03-20T01:12:53.147Z,34.91
2024-03-20T01:13:53.135Z,34.93
2024-03-20T01:14:53.138Z,34.93
2024-03-20T01:15:53.138Z,34.90
2024-03-20T01:16:53.134Z,34.94
2024-03-20T01:17:53.134Z,34.91
2024-03-20T01:18:53.132Z,34.89
2024-03-20T01:19:53.121Z,34.94
2024-03-20T01:20:53.125Z,34.91
2024-03-20T01:21:53.124Z,34.90
2024-03-20T01:22:53.125Z,34.90
2024-03-20T01:23:53.132Z,34.93
2024-03-20T01:24:53.120Z,34.87
2024-03-20T01:25:53.120Z,34.90
2024-03-20T01:26:53.117Z,34.87
2024-03-20T01:27:53.113Z,34.86
2024-03-20T01:28:53.106Z,34.94
2024-03-20T01:29:53.099Z,34.90
2024-03-20T01:30:53.096Z,34.93
2024-03-20T01:31:53.101Z,34.89
2024-03-20T01:32:53.171Z,34.90
2024-03-20T01:33:53.105Z,34.91
2024-03-20T01:34:53.107Z,34.90
2024-03-20T01:35:53.089Z,34.90
2024-03-20T01:36:53.091Z,34.91
2024-03-20T01:37:53.103Z,34.90
2024-03-20T01:38:53.102Z,34.90
2024-03-20T01:39:53.098Z,34.90
2024-03-20T01:40:53.116Z,34.90
2024-03-20T01:41:53.117Z,34.87
2024-03-20T01:42:53.113Z,34.90
2024-03-20T01:43:53.139Z,34.91
2024-03-20T01:44:53.119Z,34.87
2024-03-20T01:45:53.129Z,34.93
2024-03-20T01:46:53.148Z,34.88
2024-03-20T01:47:53.133Z,34.91
2024-03-20T01:48:53.140Z,34.91
2024-03-20T01:49:53.131Z,34.90
2024-03-20T01:50:53.144Z,34.88
2024-03-20T01:51:53.142Z,34.88
2024-03-20T01:52:53.144Z,34.92
2024-03-20T01:53:53.138Z,34.88
2024-03-20T01:54:53.135Z,34.87
2024-03-20T01:55:53.143Z,34.87
2024-03-20T01:56:53.133Z,34.88
2024-03-20T01:57:53.123Z,34.87
2024-03-20T01:58:53.118Z,34.84
2024-03-20T01:59:53.118Z,34.90
2024-03-20T02:00:53.124Z,34.91
2024-03-20T02:01:53.100Z,34.88
2024-03-20T02:02:53.099Z,34.86
2024-03-20T02:03:53.099Z,34.86
2024-03-20T02:04:53.083Z,34.83
2024-03-20T02:05:53.110Z,34.87
2024-03-20T02:06:53.081Z,34.84
2024-03-20T02:07:53.082Z,34.87
2024-03-20T02:08:53.088Z,34.88
2024-03-20T02:09:53.083Z,34.83
2024-03-20T02:10:53.084Z,34.84
2024-03-20T02:11:53.077Z,34.88
2024-03-20T02:12:53.078Z,34.88
2024-03-20T02:13:53.077Z,34.88
2024-03-20T02:14:53.077Z,34.86
2024-03-20T02:15:53.074Z,34.91
2024-03-20T02:16:53.075Z,34.83
2024-03-20T02:17:53.073Z,34.86
2024-03-20T02:18:53.074Z,34.86
2024-03-20T02:19:53.080Z,34.86
2024-03-20T02:20:53.091Z,34.87
2024-03-20T02:21:53.100Z,34.85
2024-03-20T02:22:53.098Z,34.87
2024-03-20T02:23:53.097Z,34.81
2024-03-20T02:24:53.098Z,34.87
2024-03-20T02:25:53.104Z,34.87
2024-03-20T02:26:53.096Z,34.84
2024-03-20T02:27:53.093Z,34.83
2024-03-20T02:28:53.101Z,34.84
2024-03-20T02:29:53.097Z,34.88
2024-03-20T02:30:53.094Z,34.86
2024-03-20T02:31:53.078Z,34.81
2024-03-20T02:32:53.064Z,34.84
2024-03-20T02:33:53.113Z,34.83
2024-03-20T02:34:53.060Z,34.84
2024-03-20T02:35:53.063Z,34.84
2024-03-20T02:36:53.052Z,34.86
2024-03-20T02:37:53.064Z,34.85
2024-03-20T02:38:53.046Z,34.81
2024-03-20T02:39:53.069Z,34.80
2024-03-20T02:40:53.047Z,34.83
2024-03-20T02:41:53.054Z,34.84
2024-03-20T02:42:53.050Z,34.87
2024-03-20T02:43:53.042Z,34.81
2024-03-20T02:44:53.043Z,34.84
2024-03-20T02:45:53.043Z,34.84
2024-03-20T02:46:53.044Z,34.83
2024-03-20T02:47:53.054Z,34.85
2024-03-20T02:48:53.047Z,34.80
2024-03-20T02:49:53.041Z,34.81
2024-03-20T02:50:53.050Z,34.82
2024-03-20T02:51:53.047Z,34.83
2024-03-20T02:52:53.044Z,34.84
2024-03-20T02:53:53.037Z,34.80
2024-03-20T02:54:53.044Z,34.83
2024-03-20T02:55:53.042Z,34.82
2024-03-20T02:56:53.048Z,34.81
2024-03-20T02:57:53.064Z,34.81
2024-03-20T02:58:53.084Z,34.81
2024-03-20T02:59:53.109Z,34.84
2024-03-20T03:00:53.117Z,34.84
2024-03-20T03:01:53.130Z,34.83
2024-03-20T03:02:53.140Z,34.80
2024-03-20T03:03:53.156Z,34.80
2024-03-20T03:04:53.170Z,34.84
2024-03-20T03:05:53.199Z,34.82
2024-03-20T03:06:53.205Z,34.88
2024-03-20T03:07:53.231Z,34.81
2024-03-20T03:08:53.218Z,34.85
2024-03-20T03:09:53.235Z,34.81
2024-03-20T03:10:53.492Z,34.82
2024-03-20T03:11:53.262Z,34.80
2024-03-20T03:12:53.277Z,34.81
2024-03-20T03:13:53.284Z,34.81
2024-03-20T03:14:58.343Z,34.78
2024-03-20T03:15:54.292Z,34.82
2024-03-20T03:16:53.993Z,34.79
2024-03-20T03:17:53.298Z,34.77
2024-03-20T03:18:53.289Z,34.81
2024-03-20T03:19:53.286Z,34.80
2024-03-20T03:20:53.297Z,34.79
2024-03-20T03:21:53.296Z,34.82
2024-03-20T03:22:53.298Z,34.80
2024-03-20T03:23:53.289Z,34.79
2024-03-20T03:24:53.296Z,34.78
2024-03-20T03:25:53.299Z,34.77
2024-03-20T03:26:53.296Z,34.80
2024-03-20T03:27:53.294Z,34.79
2024-03-20T03:28:53.303Z,34.79
2024-03-20T03:29:53.302Z,34.75
2024-03-20T03:30:53.305Z,34.77
2024-03-20T03:31:54.009Z,34.73
2024-03-20T03:32:53.308Z,34.75
2024-03-20T03:33:53.313Z,34.79
2024-03-20T03:34:53.321Z,34.73
2024-03-20T03:35:53.325Z,34.84
2024-03-20T03:36:53.336Z,34.78
2024-03-20T03:37:53.346Z,34.75
2024-03-20T03:38:53.344Z,34.77
2024-03-20T03:39:53.341Z,34.71
2024-03-20T03:40:53.339Z,34.74
2024-03-20T03:41:53.336Z,34.78
2024-03-20T03:42:53.339Z,34.74
2024-03-20T03:43:53.353Z,34.74
2024-03-20T03:44:53.340Z,34.78
2024-03-20T03:45:53.346Z,34.77
2024-03-20T03:46:53.336Z,34.75
2024-03-20T03:47:53.348Z,34.75
2024-03-20T03:48:53.340Z,34.73
2024-03-20T03:49:53.340Z,34.73
2024-03-20T03:50:53.347Z,34.77
2024-03-20T03:51:53.354Z,34.75
2024-03-20T03:52:53.355Z,34.74
2024-03-20T03:53:53.379Z,34.71
2024-03-20T03:54:53.390Z,34.79
2024-03-20T03:55:53.425Z,34.78
2024-03-20T03:56:53.450Z,34.81
2024-03-20T03:57:53.464Z,34.79
2024-03-20T03:58:53.492Z,34.80
2024-03-20T03:59:53.498Z,34.81
2024-03-20T04:00:53.518Z,34.77
2024-03-20T04:01:53.534Z,34.77
2024-03-20T04:02:53.547Z,34.77
2024-03-20T04:03:53.557Z,34.78
2024-03-20T04:04:53.590Z,34.73
2024-03-20T04:05:53.621Z,34.78
2024-03-20T04:06:53.637Z,34.73
2024-03-20T04:07:53.654Z,34.70
2024-03-20T04:08:53.673Z,34.76
2024-03-20T04:09:53.699Z,34.76
2024-03-20T04:10:53.719Z,34.69
2024-03-20T04:11:53.734Z,34.69
2024-03-20T04:12:53.748Z,34.72
2024-03-20T04:13:53.752Z,34.69
2024-03-20T04:14:53.755Z,34.68
2024-03-20T04:15:53.811Z,34.71
2024-03-20T04:16:53.805Z,34.65
2024-03-20T04:17:53.813Z,34.67
2024-03-20T04:18:53.839Z,34.61
2024-03-20T04:19:53.849Z,34.64
2024-03-20T04:20:53.879Z,34.62
2024-03-20T04:21:53.881Z,34.59
2024-03-20T04:22:53.918Z,34.63
2024-03-20T04:23:53.933Z,34.57
2024-03-20T04:24:54.010Z,34.62
2024-03-20T04:25:54.072Z,34.60
2024-03-20T04:26:54.110Z,34.54
2024-03-20T04:27:54.120Z,34.54
2024-03-20T04:28:54.124Z,34.52
2024-03-20T04:29:54.141Z,34.51
2024-03-20T04:30:54.159Z,34.50
2024-03-20T04:31:54.167Z,34.49
2024-03-20T04:32:54.183Z,34.48
2024-03-20T04:33:54.245Z,34.50
2024-03-20T04:34:54.271Z,34.49
2024-03-20T04:35:54.287Z,34.44
2024-03-20T04:36:54.295Z,34.45
2024-03-20T04:37:54.316Z,34.45
2024-03-20T04:38:54.353Z,34.46
2024-03-20T04:39:54.369Z,34.41
2024-03-20T04:40:54.391Z,34.46
2024-03-20T04:41:54.402Z,34.44
2024-03-20T04:42:54.424Z,34.39
2024-03-20T04:43:54.434Z,34.43
2024-03-20T04:44:54.456Z,34.44
2024-03-20T04:45:54.494Z,34.40
2024-03-20T04:46:54.528Z,34.41
2024-03-20T04:47:54.535Z,34.41
2024-03-20T04:48:54.546Z,34.37
2024-03-20T04:49:54.545Z,34.41
2024-03-20T04:50:54.567Z,34.34
2024-03-20T04:51:54.589Z,34.34
2024-03-20T04:52:54.597Z,34.37
2024-03-20T04:53:54.607Z,34.32
2024-03-20T04:54:54.627Z,34.30
2024-03-20T04:55:54.673Z,34.36
2024-03-20T04:56:54.692Z,34.37
2024-03-20T04:57:54.719Z,34.29
2024-03-20T04:59:02.078Z,34.36
2024-03-20T05:00:02.101Z,34.33
2024-03-20T05:01:02.131Z,34.40
2024-03-20T05:02:02.079Z,34.32
2024-03-20T05:03:02.077Z,34.32
2024-03-20T05:04:02.090Z,34.38
2024-03-20T05:05:02.093Z,34.32
2024-03-20T05:06:02.095Z,34.29
2024-03-20T05:07:02.084Z,34.31
2024-03-20T05:08:02.089Z,34.31
2024-03-20T05:09:02.089Z,34.28
2024-03-20T05:10:02.154Z,34.29
2024-03-20T05:11:02.117Z,34.28
2024-03-20T05:12:02.086Z,34.31
2024-03-20T05:13:02.098Z,34.30
2024-03-20T05:14:02.102Z,34.28
2024-03-20T05:15:02.101Z,34.27
2024-03-20T05:16:02.098Z,34.24
2024-03-20T05:17:02.091Z,34.25
2024-03-20T05:18:02.106Z,34.27
2024-03-20T05:19:02.084Z,34.24
2024-03-20T05:20:02.091Z,34.21
2024-03-20T05:21:02.097Z,34.21
2024-03-20T05:22:02.108Z,34.24
2024-03-20T05:23:02.072Z,34.26
2024-03-20T05:24:02.079Z,34.19
2024-03-20T05:25:02.099Z,34.21
2024-03-20T05:26:02.099Z,34.20
2024-03-20T05:27:02.092Z,34.21
2024-03-20T05:28:02.106Z,34.20
2024-03-20T05:29:02.096Z,34.15
2024-03-20T05:30:02.089Z,34.20
2024-03-20T05:31:02.087Z,34.21
2024-03-20T05:32:02.088Z,34.14
2024-03-20T05:33:02.090Z,34.19
2024-03-20T05:34:02.082Z,34.18
2024-03-20T05:35:02.092Z,34.18
2024-03-20T05:36:02.074Z,34.19
2024-03-20T05:37:02.069Z,34.14
2024-03-20T05:38:02.073Z,34.12
2024-03-20T05:39:02.067Z,34.21
2024-03-20T05:40:02.087Z,34.15
2024-03-20T05:41:02.091Z,34.18
2024-03-20T05:42:02.078Z,34.16
2024-03-20T05:43:02.069Z,34.14
2024-03-20T05:44:02.087Z,34.15
2024-03-20T05:45:02.125Z,34.14
2024-03-20T05:46:02.174Z,34.10
2024-03-20T05:47:02.232Z,34.13
2024-03-20T05:48:02.270Z,34.13
2024-03-20T05:49:02.320Z,34.14
2024-03-20T05:50:02.384Z,34.13
2024-03-20T05:51:02.407Z,34.10
2024-03-20T05:52:02.436Z,34.10
2024-03-20T05:53:02.477Z,34.11
2024-03-20T05:54:02.502Z,34.11
2024-03-20T05:55:02.548Z,34.07
2024-03-20T05:56:02.578Z,34.10
2024-03-20T05:57:02.624Z,34.06
2024-03-20T05:58:02.682Z,34.06
2024-03-20T05:59:02.734Z,34.06
2024-03-20T06:00:02.806Z,34.07
2024-03-20T06:01:02.823Z,34.05
2024-03-20T06:02:02.859Z,34.06
2024-03-20T06:03:02.908Z,34.11
2024-03-20T06:04:02.953Z,34.10
2024-03-20T06:05:03.705Z,34.06
2024-03-20T06:06:03.034Z,34.03
2024-03-20T06:07:03.105Z,34.07
2024-03-20T06:08:03.181Z,34.07
2024-03-20T06:09:18.225Z,34.07
2024-03-20T06:10:03.222Z,34.03
2024-03-20T06:11:03.241Z,34.05
2024-03-20T06:12:03.222Z,34.09
2024-03-20T06:13:03.227Z,34.09
2024-03-20T06:14:03.229Z,34.06
2024-03-20T06:15:03.222Z,34.06
2024-03-20T06:16:03.217Z,34.05
2024-03-20T06:17:04.474Z,34.09
2024-03-20T06:18:03.215Z,34.05
2024-03-20T06:19:03.248Z,34.02
2024-03-20T06:20:04.129Z,34.03
2024-03-20T06:21:03.343Z,34.05
2024-03-20T06:22:03.399Z,34.06
2024-03-20T06:23:03.426Z,34.10
2024-03-20T06:24:03.476Z,34.12
2024-03-20T06:25:03.518Z,34.09
2024-03-20T06:26:03.564Z,34.10
2024-03-20T06:27:03.591Z,34.47
2024-03-20T06:28:03.601Z,34.66
2024-03-20T06:29:03.631Z,34.97
2024-03-20T06:30:03.722Z,35.28
2024-03-20T06:31:03.754Z,35.38
2024-03-20T06:32:03.815Z,34.41
2024-03-20T06:33:03.861Z,31.93
2024-03-20T06:34:03.872Z,30.68
2024-03-20T06:35:05.716Z,29.62
2024-03-20T06:36:04.072Z,30.82
2024-03-20T06:37:04.710Z,29.68
2024-03-20T06:38:03.971Z,28.77
2024-03-20T06:39:04.027Z,28.42
2024-03-20T06:40:04.085Z,28.24
2024-03-20T06:41:04.639Z,28.26
2024-03-20T06:42:04.232Z,28.44
2024-03-20T06:43:04.249Z,28.18
2024-03-20T06:44:04.287Z,28.52
2024-03-20T06:45:04.291Z,28.79
2024-03-20T06:46:04.313Z,28.94
2024-03-20T06:47:04.336Z,29.39
2024-03-20T06:48:04.358Z,29.91
2024-03-20T06:49:04.369Z,29.82
2024-03-20T06:50:04.436Z,29.13
2024-03-20T06:51:05.222Z,28.43
2024-03-20T06:52:04.486Z,28.10
2024-03-20T06:53:04.507Z,28.49
2024-03-20T06:54:04.537Z,28.79
2024-03-20T06:55:04.555Z,29.09
2024-03-20T06:56:04.585Z,29.66
2024-03-20T06:57:04.649Z,29.14
2024-03-20T06:58:04.714Z,29.30
2024-03-20T06:59:04.786Z,29.10
2024-03-20T07:00:04.853Z,29.78
2024-03-20T07:01:04.966Z,28.75
2024-03-20T07:02:04.980Z,28.43
2024-03-20T07:03:05.048Z,28.67
2024-03-20T07:04:05.096Z,28.72
2024-03-20T07:05:05.163Z,28.75
2024-03-20T07:06:05.194Z,28.61
2024-03-20T07:07:05.248Z,28.48
2024-03-20T07:08:05.294Z,28.83
2024-03-20T07:09:05.320Z,28.65
2024-03-20T07:10:05.354Z,28.61
2024-03-20T07:11:05.376Z,28.42
2024-03-20T07:12:05.389Z,28.38
2024-03-20T07:13:05.409Z,28.67
2024-03-20T07:14:05.414Z,28.35
2024-03-20T07:15:05.441Z,28.31
2024-03-20T07:16:05.459Z,28.59
2024-03-20T07:17:05.486Z,28.71
2024-03-20T07:18:05.505Z,28.77
2024-03-20T07:19:05.507Z,29.00
2024-03-20T07:20:05.527Z,28.12
2024-03-20T07:21:05.584Z,28.65
2024-03-20T07:22:05.661Z,28.72
2024-03-20T07:23:05.716Z,28.98
2024-03-20T07:24:05.789Z,28.92
2024-03-20T07:25:05.846Z,29.29
2024-03-20T07:26:05.912Z,29.43
2024-03-20T07:27:05.980Z,29.14
2024-03-20T07:28:06.029Z,29.49
2024-03-20T07:29:06.066Z,29.77
2024-03-20T07:30:06.116Z,29.23
2024-03-20T07:31:06.169Z,29.62
2024-03-20T07:32:06.191Z,29.32
2024-03-20T07:33:06.234Z,29.86
2024-03-20T07:34:06.316Z,29.88
2024-03-20T07:35:06.302Z,29.96
2024-03-20T07:36:06.336Z,30.15
2024-03-20T07:37:06.359Z,30.24
2024-03-20T07:38:06.401Z,30.35
2024-03-20T07:39:06.415Z,30.38
2024-03-20T07:40:06.437Z,30.46
2024-03-20T07:41:06.455Z,30.58
2024-03-20T07:42:06.472Z,30.64
2024-03-20T07:43:06.491Z,30.89
2024-03-20T07:44:06.499Z,30.94
2024-03-20T07:45:06.512Z,30.96
2024-03-20T07:46:06.521Z,30.92
2024-03-20T07:47:06.516Z,31.02
2024-03-20T07:48:06.586Z,31.17
2024-03-20T07:49:06.518Z,31.22
2024-03-20T07:50:06.547Z,31.32
2024-03-20T07:51:06.530Z,31.36
2024-03-20T07:52:06.550Z,31.46
2024-03-20T07:53:07.202Z,31.82
2024-03-20T07:54:06.511Z,31.65
2024-03-20T07:55:06.517Z,31.70
2024-03-20T07:56:06.537Z,31.88
2024-03-20T07:57:06.506Z,31.91
2024-03-20T07:58:07.559Z,32.08
2024-03-20T07:59:06.591Z,32.15
2024-03-20T08:00:07.254Z,31.87
2024-03-20T08:01:07.257Z,31.80
2024-03-20T08:02:06.571Z,31.74
2024-03-20T08:03:06.586Z,31.67
2024-03-20T08:04:06.542Z,31.69
2024-03-20T08:05:06.605Z,31.56
2024-03-20T08:06:06.537Z,31.40
2024-03-20T08:07:06.552Z,29.90
2024-03-20T08:08:06.530Z,28.77
2024-03-20T08:09:06.517Z,28.26
2024-03-20T08:10:06.541Z,28.33
2024-03-20T08:11:06.521Z,27.75
2024-03-20T08:12:06.621Z,27.60
2024-03-20T08:13:06.556Z,28.20
2024-03-20T08:14:06.570Z,27.71
2024-03-20T08:15:06.584Z,27.63
2024-03-20T08:16:06.598Z,27.60
2024-03-20T08:17:06.618Z,26.95
2024-03-20T08:18:06.615Z,27.10
2024-03-20T08:19:06.628Z,26.96
2024-03-20T08:20:06.653Z,27.22
2024-03-20T08:21:07.253Z,28.07
2024-03-20T08:22:06.750Z,28.31
2024-03-20T08:23:06.744Z,27.76
2024-03-20T08:24:06.775Z,27.19
2024-03-20T08:25:06.862Z,27.20
2024-03-20T08:26:07.750Z,26.96
2024-03-20T08:27:06.886Z,26.85
2024-03-20T08:28:06.926Z,26.43
2024-03-20T08:29:06.943Z,26.17
2024-03-20T08:30:06.973Z,26.52
2024-03-20T08:31:07.863Z,25.65
2024-03-20T08:32:07.063Z,25.92
2024-03-20T08:33:07.189Z,26.51
2024-03-20T08:34:07.151Z,25.92
2024-03-20T08:35:07.087Z,25.52
2024-03-20T08:36:07.761Z,25.60
2024-03-20T08:37:07.144Z,25.52
2024-03-20T08:38:08.143Z,25.84
2024-03-20T08:39:07.335Z,26.62
2024-03-20T08:40:07.156Z,26.20
2024-03-20T08:41:07.221Z,25.86
2024-03-20T08:42:07.972Z,27.51
2024-03-20T08:43:17.769Z,26.27
2024-03-20T08:44:08.084Z,26.23
2024-03-20T08:45:07.069Z,26.39
2024-03-20T08:46:07.081Z,26.54
2024-03-20T08:47:07.109Z,25.96
2024-03-20T08:48:07.075Z,26.60
2024-03-20T08:49:06.996Z,26.34
2024-03-20T08:50:06.988Z,25.67
2024-03-20T08:51:06.982Z,25.57
2024-03-20T08:52:06.999Z,25.11
2024-03-20T08:53:07.790Z,25.57
2024-03-20T08:54:06.962Z,26.23
2024-03-20T08:55:06.998Z,26.05
2024-03-20T08:56:06.948Z,25.33
2024-03-20T08:57:07.768Z,25.40
2024-03-20T08:58:07.698Z,25.46
2024-03-20T08:59:07.729Z,26.02
2024-03-20T09:00:06.891Z,25.71
2024-03-20T09:01:06.817Z,25.50
2024-03-20T09:02:06.806Z,25.65
2024-03-20T09:03:06.838Z,25.76
2024-03-20T09:04:06.771Z,25.27
2024-03-20T09:05:06.753Z,24.80
2024-03-20T09:06:06.752Z,24.78
2024-03-20T09:07:06.768Z,24.92
2024-03-20T09:08:06.773Z,25.32
2024-03-20T09:09:06.796Z,25.81
2024-03-20T09:10:06.796Z,25.39
2024-03-20T09:11:06.945Z,25.67
2024-03-20T09:12:07.283Z,26.13
2024-03-20T09:13:06.773Z,25.54
2024-03-20T09:14:06.768Z,25.35
2024-03-20T09:15:06.781Z,25.59
2024-03-20T09:16:06.770Z,24.82
2024-03-20T09:17:06.802Z,25.36
2024-03-20T09:18:06.782Z,26.51
2024-03-20T09:19:06.796Z,25.85
2024-03-20T09:20:06.789Z,26.17
2024-03-20T09:21:06.789Z,27.27
2024-03-20T09:22:06.802Z,26.50
2024-03-20T09:23:06.842Z,25.73
2024-03-20T09:24:06.879Z,25.93
2024-03-20T09:25:06.861Z,25.56
2024-03-20T09:26:07.010Z,25.27
2024-03-20T09:27:07.086Z,25.13
2024-03-20T09:28:06.954Z,24.74
2024-03-20T09:29:06.979Z,24.70
2024-03-20T09:30:07.181Z,24.56
2024-03-20T09:31:07.148Z,24.77
2024-03-20T09:32:07.052Z,24.69
2024-03-20T09:33:07.145Z,24.79
2024-03-20T09:34:07.797Z,24.51
2024-03-20T09:35:07.303Z,24.41
2024-03-20T09:36:07.797Z,24.28
2024-03-20T09:37:07.412Z,24.11
2024-03-20T09:38:07.311Z,24.20
2024-03-20T09:39:07.375Z,24.23
2024-03-20T09:40:07.293Z,24.20
2024-03-20T09:41:07.332Z,24.17
2024-03-20T09:42:07.359Z,24.11
2024-03-20T09:43:07.399Z,24.23
2024-03-20T09:44:07.457Z,24.05
2024-03-20T09:45:07.440Z,23.71
2024-03-20T09:46:07.478Z,23.75
2024-03-20T09:47:07.520Z,23.34
2024-03-20T09:48:07.530Z,23.40
2024-03-20T09:49:07.556Z,23.31
2024-03-20T09:50:07.593Z,23.43
2024-03-20T09:51:08.216Z,23.31
2024-03-20T09:52:08.298Z,23.36
2024-03-20T09:53:07.696Z,23.35
2024-03-20T09:54:07.775Z,22.98
2024-03-20T09:55:07.766Z,23.01
2024-03-20T09:56:07.802Z,23.12
2024-03-20T09:57:07.833Z,22.87
2024-03-20T09:58:07.877Z,22.77
2024-03-20T09:59:07.927Z,22.82
2024-03-20T10:00:07.949Z,22.80
2024-03-20T10:01:08.026Z,22.79
2024-03-20T10:02:08.025Z,22.57
2024-03-20T10:03:08.066Z,22.52
2024-03-20T10:04:08.095Z,22.45
2024-03-20T10:05:09.726Z,22.42
2024-03-20T10:06:08.167Z,22.39
2024-03-20T10:07:08.206Z,22.38
2024-03-20T10:08:08.248Z,22.20
2024-03-20T10:09:08.277Z,22.38
2024-03-20T10:10:08.326Z,22.47
2024-03-20T10:11:08.366Z,22.50
2024-03-20T10:12:08.395Z,22.39
2024-03-20T10:13:08.428Z,22.31
2024-03-20T10:14:08.471Z,22.07
2024-03-20T10:15:09.692Z,22.12
2024-03-20T10:16:19.284Z,21.98
2024-03-20T10:17:10.659Z,21.98
2024-03-20T10:18:08.534Z,22.14
2024-03-20T10:19:08.547Z,22.15
2024-03-20T10:20:08.532Z,22.23
2024-03-20T10:21:10.851Z,22.17
2024-03-20T10:22:08.615Z,21.82
2024-03-20T10:23:09.380Z,21.91
2024-03-20T10:24:11.233Z,21.81
2024-03-20T10:25:08.835Z,21.85
2024-03-20T10:26:08.876Z,21.73
2024-03-20T10:27:10.970Z,21.64
2024-03-20T10:28:09.814Z,21.73
2024-03-20T10:29:08.999Z,21.81
2024-03-20T10:30:15.317Z,21.73
2024-03-20T10:31:16.786Z,21.77
2024-03-20T10:32:10.035Z,21.81
2024-03-20T10:33:09.048Z,21.80
2024-03-20T10:34:09.734Z,21.66
2024-03-20T10:35:11.006Z,21.66
2024-03-20T10:36:09.063Z,21.60
2024-03-20T10:37:09.063Z,21.54
2024-03-20T10:38:09.048Z,21.49
2024-03-20T10:39:15.572Z,21.35
2024-03-20T10:40:10.059Z,21.35
2024-03-20T10:41:10.408Z,21.53
2024-03-20T10:42:09.059Z,21.60
2024-03-20T10:43:09.043Z,21.54
2024-03-20T10:44:09.070Z,21.57
2024-03-20T10:45:09.054Z,21.52
2024-03-20T10:46:09.023Z,21.43
2024-03-20T10:47:10.731Z,21.32
2024-03-20T10:48:09.006Z,21.33
2024-03-20T10:49:09.038Z,21.57
2024-03-20T10:50:09.009Z,21.62
2024-03-20T10:51:09.741Z,21.30
2024-03-20T10:52:09.000Z,21.39
2024-03-20T10:53:10.850Z,21.42
2024-03-20T10:54:09.046Z,21.38
2024-03-20T10:55:09.084Z,21.29
2024-03-20T10:56:09.140Z,21.22
2024-03-20T10:57:09.191Z,21.08
2024-03-20T10:58:09.213Z,20.98
2024-03-20T10:59:10.763Z,21.11
2024-03-20T11:00:09.299Z,21.25
2024-03-20T11:01:12.463Z,21.42
2024-03-20T11:02:09.324Z,21.29
2024-03-20T11:03:09.320Z,21.26
2024-03-20T11:04:09.319Z,21.11
2024-03-20T11:05:10.921Z,20.98
2024-03-20T11:06:09.311Z,21.20
2024-03-20T11:07:09.313Z,21.12
2024-03-20T11:08:09.300Z,21.17
2024-03-20T11:09:09.308Z,21.06
2024-03-20T11:10:09.300Z,21.12
2024-03-20T11:11:11.552Z,21.33
2024-03-20T11:12:09.303Z,22.91
2024-03-20T11:13:09.290Z,22.64
2024-03-20T11:14:10.354Z,22.97
2024-03-20T11:15:09.297Z,23.37
2024-03-20T11:16:09.268Z,23.84
2024-03-20T11:17:10.918Z,23.74
2024-03-20T11:18:10.258Z,24.77
2024-03-20T11:19:09.280Z,24.67
2024-03-20T11:20:09.249Z,24.82
2024-03-20T11:21:09.239Z,25.89
2024-03-20T11:22:09.227Z,25.93
2024-03-20T11:23:09.214Z,26.47
2024-03-20T11:24:09.757Z,25.59
2024-03-20T11:25:09.197Z,25.43
2024-03-20T11:26:09.184Z,25.64
2024-03-20T11:27:09.175Z,25.70
2024-03-20T11:28:09.154Z,26.31
2024-03-20T11:29:10.723Z,26.33
2024-03-20T11:30:09.141Z,26.03
2024-03-20T11:31:09.115Z,27.30
2024-03-20T11:32:09.106Z,25.40
2024-03-20T11:33:09.094Z,26.05
2024-03-20T11:34:10.119Z,26.02
2024-03-20T11:35:09.090Z,25.75
2024-03-20T11:36:09.142Z,25.74
2024-03-20T11:37:09.152Z,25.65
2024-03-20T11:38:09.232Z,25.26
2024-03-20T11:39:09.248Z,25.09
2024-03-20T11:40:09.297Z,25.47
2024-03-20T11:41:09.834Z,25.22
2024-03-20T11:42:09.379Z,25.72
2024-03-20T11:43:09.432Z,25.92
2024-03-20T11:44:10.705Z,25.79
2024-03-20T11:45:09.605Z,25.55
2024-03-20T11:46:09.647Z,25.55
2024-03-20T11:47:10.183Z,25.70
2024-03-20T11:48:09.748Z,25.49
2024-03-20T11:49:09.778Z,26.12
2024-03-20T11:50:09.821Z,26.06
2024-03-20T11:51:09.873Z,26.04
2024-03-20T11:52:09.928Z,26.03
2024-03-20T11:53:10.041Z,26.31
2024-03-20T11:54:10.034Z,26.76
2024-03-20T11:55:10.053Z,26.93
2024-03-20T11:56:10.100Z,26.84
2024-03-20T11:57:10.145Z,27.19
2024-03-20T11:58:10.195Z,26.77
2024-03-20T11:59:10.248Z,26.63
2024-03-20T12:00:10.845Z,26.51
2024-03-20T12:01:10.335Z,26.52
2024-03-20T12:02:10.378Z,26.44
2024-03-20T12:03:10.410Z,26.23
2024-03-20T12:04:10.451Z,26.41
2024-03-20T12:05:10.461Z,26.56
2024-03-20T12:06:10.523Z,26.69
2024-03-20T12:07:11.489Z,26.73
2024-03-20T12:08:10.462Z,26.76
2024-03-20T12:09:10.456Z,26.72
2024-03-20T12:10:10.437Z,26.76
2024-03-20T12:11:10.412Z,26.80
2024-03-20T12:12:10.400Z,26.83
2024-03-20T12:13:10.380Z,26.83
2024-03-20T12:14:10.400Z,26.94
2024-03-20T12:15:10.359Z,26.91
2024-03-20T12:16:10.400Z,26.98
2024-03-20T12:17:10.439Z,27.01
2024-03-20T12:18:10.474Z,26.99
2024-03-20T12:19:10.519Z,27.15
2024-03-20T12:20:10.574Z,27.18
2024-03-20T12:21:10.606Z,27.23
2024-03-20T12:22:10.627Z,27.23
2024-03-20T12:23:10.668Z,27.28
2024-03-20T12:24:10.664Z,27.32
2024-03-20T12:25:10.715Z,27.36
2024-03-20T12:26:10.707Z,27.37
2024-03-20T12:27:10.714Z,27.40
2024-03-20T12:28:10.690Z,27.47
2024-03-20T12:29:10.681Z,27.50
2024-03-20T12:30:10.698Z,27.49
2024-03-20T12:31:10.687Z,27.49
2024-03-20T12:32:10.704Z,27.56
2024-03-20T12:33:10.660Z,27.59
2024-03-20T12:34:10.670Z,27.64
2024-03-20T12:35:10.673Z,33.07
2024-03-20T12:36:10.672Z,30.82
2024-03-20T12:37:10.691Z,28.34
2024-03-20T12:38:10.712Z,29.55
2024-03-20T12:39:10.768Z,52.00
2024-03-20T12:40:10.828Z,29.26
2024-03-20T12:41:10.884Z,27.97
2024-03-20T12:42:12.619Z,27.91
2024-03-20T12:43:10.999Z,27.91
2024-03-20T12:44:11.053Z,27.98
2024-03-20T12:45:11.131Z,27.98
2024-03-20T12:46:11.250Z,27.97
2024-03-20T12:47:11.256Z,27.96
2024-03-20T12:48:11.308Z,28.00
2024-03-20T12:49:11.370Z,28.10
2024-03-20T12:50:11.441Z,28.13
2024-03-20T12:51:11.507Z,28.17
2024-03-20T12:52:11.576Z,28.25
2024-03-20T12:53:11.663Z,28.22
2024-03-20T12:54:12.931Z,28.27
2024-03-20T12:55:11.796Z,28.27